Terminal Aerodrome Forecast
Issued by NWS Sioux Falls, SD

Home | Current Version | Previous Version | Graphics & Text | Print | Product List | Glossary On
Versions: 1 2 3 4 5 6 7 8 9 10 11 12 13 14 15
000
FTUS43 KFSD 170500
TAFFSD
TAF
KFSD 170523Z 1706/1806 36014G20KT P6SM OVC015
     FM170800 35013KT P6SM BKN022
     FM171000 35012KT P6SM SCT025 BKN200
     FM171700 36008KT P6SM SKC
     FM172100 10005KT P6SM SCT150
     FM180300 11010KT P6SM BKN100=

USA.gov is the U.S. government's official web portal to all federal, state and local government web resources and services.